Time;durP1;ratioP1;P1;durP2;ratioP2;P2;SDS_P1;SDS_P2;PMS_P1;PMS_P2;Temp;Humidity;BMP_temperature;BMP_pressure;BME280_temperature;BME280_humidity;BME280_pressure;Samples;Min_cycle;Max_cycle;Signal;HPM_P1;HPM_P2
2022/08/08 00:01:38;;;;;;;1.60;0.90;;;15.60;99.90;;;;;;5049028;28;38008;-60
2022/08/08 00:04:12;;;;;;;0.65;0.57;;;15.50;99.90;;;;;;5047829;28;37624;-60
2022/08/08 00:06:48;;;;;;;3.08;1.30;;;15.50;99.90;;;;;;5047332;28;36541;-60
2022/08/08 00:09:24;;;;;;;3.67;1.70;;;15.50;99.90;;;;;;5050931;28;37239;-56
2022/08/08 00:12:01;;;;;;;4.50;2.08;;;15.50;99.90;;;;;;5050515;28;37034;-60
2022/08/08 00:14:38;;;;;;;4.13;2.50;;;15.50;99.90;;;;;;5050493;28;38603;-60
2022/08/08 00:17:12;;;;;;;4.70;2.33;;;15.50;99.90;;;;;;5047607;28;36533;-57
2022/08/08 00:19:46;;;;;;;4.22;1.90;;;15.50;99.90;;;;;;5049613;28;37150;-57
2022/08/08 00:22:20;;;;;;;3.25;1.70;;;15.50;99.90;;;;;;5048816;28;36256;-57
2022/08/08 00:24:51;;;;;;;3.72;2.03;;;15.50;99.90;;;;;;5050599;28;35249;-60
2022/08/08 00:27:20;;;;;;;4.50;1.88;;;15.50;99.90;;;;;;5051078;28;38839;-57
2022/08/08 00:29:54;;;;;;;4.95;2.38;;;15.50;99.90;;;;;;5048286;28;37409;-60
2022/08/08 00:32:27;;;;;;;5.60;2.38;;;15.50;99.90;;;;;;5047164;28;39309;-57
2022/08/08 00:35:10;;;;;;;5.10;2.57;;;15.50;99.90;;;;;;5051253;28;36199;-57
2022/08/08 00:37:45;;;;;;;5.45;2.85;;;15.50;99.90;;;;;;5049379;28;36261;-57
2022/08/08 00:41:01;;;;;;;8.65;3.35;;;15.50;99.90;;;;;;5049102;28;37205;-60
2022/08/08 00:44:08;;;;;;;5.45;2.90;;;15.50;99.90;;;;;;5049203;28;39782;-60
2022/08/08 00:47:04;;;;;;;6.50;3.38;;;15.50;99.90;;;;;;5008367;28;38547;-60
2022/08/08 00:50:12;;;;;;;7.32;3.58;;;15.50;99.90;;;;;;5049618;28;37046;-57
2022/08/08 00:52:53;;;;;;;7.93;3.20;;;15.50;99.90;;;;;;5050210;28;37371;-56
2022/08/08 00:55:52;;;;;;;8.13;3.90;;;15.40;99.90;;;;;;5050276;28;38343;-57
2022/08/08 00:58:49;;;;;;;7.38;3.90;;;15.50;99.90;;;;;;5048326;28;37440;-57
2022/08/08 01:01:24;;;;;;;8.45;3.97;;;15.40;99.90;;;;;;5049243;28;37221;-60
2022/08/08 01:04:46;;;;;;;6.80;3.22;;;15.50;99.90;;;;;;5048813;28;38839;-57
2022/08/08 01:07:51;;;;;;;8.63;3.00;;;15.40;99.90;;;;;;4994001;28;39237;-57
2022/08/08 01:10:51;;;;;;;6.82;3.55;;;15.40;99.90;;;;;;5047088;28;36341;-60
2022/08/08 01:14:07;;;;;;;5.32;3.03;;;15.40;99.90;;;;;;5045735;28;37671;-60
2022/08/08 01:16:57;;;;;;;5.97;3.83;;;15.30;99.90;;;;;;4979360;28;36424;-57
2022/08/08 01:20:08;;;;;;;6.63;3.45;;;15.30;99.90;;;;;;4966857;28;36394;-57
2022/08/08 01:23:16;;;;;;;6.70;3.28;;;15.30;99.90;;;;;;5024244;28;37461;-57
2022/08/08 01:26:14;;;;;;;7.10;3.55;;;15.30;99.90;;;;;;5033654;28;35403;-56
2022/08/08 01:29:26;;;;;;;8.20;4.05;;;15.30;99.90;;;;;;5032095;28;36970;-57
2022/08/08 01:32:42;;;;;;;2.63;0.88;;;15.30;99.90;;;;;;4947948;28;38049;-60
2022/08/08 01:36:07;;;;;;;2.78;1.23;;;15.20;99.90;;;;;;4942843;28;35687;-60
2022/08/08 01:39:08;;;;;;;2.30;1.40;;;15.10;99.90;;;;;;4969402;28;36407;-60
2022/08/08 01:41:50;;;;;;;2.65;1.70;;;15.00;99.90;;;;;;5031354;28;39518;-60
2022/08/08 01:44:31;;;;;;;4.00;1.88;;;14.90;99.90;;;;;;5033312;28;39073;-60
2022/08/08 01:47:13;;;;;;;6.47;2.70;;;14.90;99.90;;;;;;5031640;28;38117;-60
2022/08/08 01:49:50;;;;;;;7.90;3.70;;;14.90;99.90;;;;;;5031859;28;37331;-60
2022/08/08 01:52:34;;;;;;;2.92;1.52;;;14.90;99.90;;;;;;5029105;28;37840;-60
2022/08/08 01:55:11;;;;;;;3.65;1.73;;;14.90;99.90;;;;;;5033449;28;37799;-61
2022/08/08 01:57:47;;;;;;;3.30;1.60;;;14.90;99.90;;;;;;5033743;28;38108;-60
2022/08/08 02:00:20;;;;;;;2.95;1.55;;;14.90;99.90;;;;;;5032557;28;36728;-61
2022/08/08 02:03:10;;;;;;;3.90;2.20;;;14.90;99.90;;;;;;5032402;28;38903;-60
2022/08/08 02:05:47;;;;;;;6.15;3.03;;;14.90;99.90;;;;;;5032021;28;38707;-60
2022/08/08 02:08:31;;;;;;;5.68;3.47;;;14.90;99.90;;;;;;5031532;28;37765;-60
2022/08/08 02:11:07;;;;;;;7.72;3.65;;;14.90;99.90;;;;;;5033629;28;35497;-60
2022/08/08 02:13:45;;;;;;;6.95;3.70;;;15.00;99.90;;;;;;5031381;28;37684;-60
2022/08/08 02:16:18;;;;;;;12.30;4.45;;;15.00;99.90;;;;;;5033764;28;37178;-60
2022/08/08 02:18:53;;;;;;;9.45;4.07;;;15.10;99.90;;;;;;5036613;28;37859;-60
2022/08/08 02:24:19;;;;;;;3.80;1.80;;;15.20;99.90;;;;;;5052895;28;38205;-60
2022/08/08 02:26:51;;;;;;;4.97;1.80;;;15.20;99.90;;;;;;5053311;28;36443;-60
2022/08/08 02:29:35;;;;;;;5.15;2.30;;;15.10;99.90;;;;;;5052970;28;38860;-61
2022/08/08 02:32:26;;;;;;;6.53;1.90;;;15.00;99.90;;;;;;5052717;28;37157;-60
2022/08/08 02:35:08;;;;;;;3.67;2.13;;;14.90;99.90;;;;;;5051351;28;37286;-60
2022/08/08 02:37:49;;;;;;;5.78;2.95;;;14.90;99.90;;;;;;5050961;28;38581;-60
2022/08/08 02:40:26;;;;;;;8.75;4.20;;;14.90;99.90;;;;;;5052184;28;37515;-60
2022/08/08 02:43:24;;;;;;;7.65;4.40;;;15.00;99.90;;;;;;5048851;28;36480;-60
2022/08/08 02:46:21;;;;;;;8.65;4.05;;;15.10;99.90;;;;;;5053056;28;36874;-60
2022/08/08 02:49:20;;;;;;;10.73;4.50;;;15.10;99.90;;;;;;5049821;28;41120;-61
2022/08/08 02:52:12;;;;;;;11.93;4.50;;;15.20;99.90;;;;;;5015628;28;38059;-61
2022/08/08 02:55:13;;;;;;;7.75;3.90;;;15.20;99.90;;;;;;5052361;28;35427;-60
2022/08/08 02:58:14;;;;;;;9.80;4.47;;;15.20;99.90;;;;;;5050416;28;37258;-60
2022/08/08 03:01:09;;;;;;;9.65;4.03;;;15.20;99.90;;;;;;5051653;28;37943;-60
2022/08/08 03:04:23;;;;;;;6.65;4.38;;;15.20;99.90;;;;;;5051428;28;38127;-60
2022/08/08 03:07:35;;;;;;;9.40;4.78;;;15.10;99.90;;;;;;5049802;28;36750;-60
2022/08/08 03:10:34;;;;;;;6.53;4.18;;;15.10;99.90;;;;;;5051983;28;42412;-60
2022/08/08 03:13:37;;;;;;;9.43;4.03;;;15.10;99.90;;;;;;5049655;28;41515;-60
2022/08/08 03:16:26;;;;;;;6.90;4.55;;;15.00;99.90;;;;;;5049518;28;38155;-60
2022/08/08 03:19:12;;;;;;;8.55;4.38;;;15.00;99.90;;;;;;5051133;28;35365;-60
2022/08/08 03:21:39;;;;;;;10.82;4.07;;;15.00;99.90;;;;;;5048781;28;37056;-60
2022/08/08 03:24:08;;;;;;;9.43;4.65;;;15.10;99.90;;;;;;5050729;28;37916;-60
2022/08/08 03:26:41;;;;;;;8.02;4.10;;;15.00;99.90;;;;;;5050118;28;37544;-60
2022/08/08 03:29:12;;;;;;;8.23;4.32;;;15.00;99.90;;;;;;5050343;28;35304;-60
2022/08/08 03:34:24;;;;;;;6.82;3.58;;;15.10;99.90;;;;;;5052092;28;39205;-60
2022/08/08 03:36:52;;;;;;;11.50;4.75;;;15.10;99.90;;;;;;5043600;28;37668;-60
2022/08/08 03:39:20;;;;;;;8.43;4.63;;;15.10;99.90;;;;;;5050333;28;37112;-60
2022/08/08 03:41:48;;;;;;;13.77;4.63;;;15.10;99.90;;;;;;5050473;28;37429;-60
2022/08/08 03:44:15;;;;;;;8.48;4.03;;;15.10;99.90;;;;;;5045705;28;38068;-60
2022/08/08 03:46:44;;;;;;;11.30;4.70;;;15.20;99.90;;;;;;5051427;28;37944;-60
2022/08/08 03:49:18;;;;;;;8.13;4.28;;;15.20;99.90;;;;;;5050816;28;35231;-60
2022/08/08 03:51:46;;;;;;;10.60;4.57;;;15.20;99.90;;;;;;5050480;28;38013;-60
2022/08/08 03:54:15;;;;;;;7.13;3.85;;;15.20;99.90;;;;;;5054232;28;37684;-60
2022/08/08 03:56:44;;;;;;;11.27;5.18;;;15.20;99.90;;;;;;5052392;28;39334;-60
2022/08/08 03:59:11;;;;;;;10.77;4.68;;;15.20;99.90;;;;;;5053509;28;38903;-61
2022/08/08 04:01:41;;;;;;;9.10;4.50;;;15.20;99.90;;;;;;5053601;28;37985;-60
2022/08/08 04:04:09;;;;;;;8.75;4.35;;;15.20;99.90;;;;;;5054690;28;36787;-60
2022/08/08 04:06:37;;;;;;;8.20;4.22;;;15.20;99.90;;;;;;5052392;28;37092;-60
2022/08/08 04:09:07;;;;;;;8.23;3.95;;;15.20;99.90;;;;;;5055174;28;36533;-60
2022/08/08 04:11:38;;;;;;;9.85;4.25;;;15.20;99.90;;;;;;5053805;28;36842;-60
2022/08/08 04:14:07;;;;;;;9.88;4.10;;;15.30;99.90;;;;;;5053428;28;39476;-60
2022/08/08 04:16:34;;;;;;;7.03;3.55;;;15.30;99.90;;;;;;5054002;28;37247;-60
2022/08/08 04:19:01;;;;;;;11.15;4.45;;;15.30;99.90;;;;;;5054788;28;37765;-60
2022/08/08 04:21:29;;;;;;;10.75;4.93;;;15.30;99.90;;;;;;5054295;28;37513;-60
2022/08/08 04:23:56;;;;;;;7.60;4.32;;;15.30;99.90;;;;;;5054471;28;37966;-60
2022/08/08 04:26:23;;;;;;;9.68;4.00;;;15.30;99.90;;;;;;5052428;28;37489;-60
2022/08/08 04:28:51;;;;;;;6.95;3.97;;;15.30;99.90;;;;;;5053494;28;35251;-60
2022/08/08 04:31:19;;;;;;;8.48;4.78;;;15.30;99.90;;;;;;5052160;28;37390;-60
2022/08/08 04:33:47;;;;;;;7.60;4.20;;;15.30;99.90;;;;;;5053642;28;37967;-60
2022/08/08 04:36:14;;;;;;;8.70;4.13;;;15.30;99.90;;;;;;5053915;28;35593;-60
2022/08/08 04:38:41;;;;;;;13.48;4.78;;;15.30;99.90;;;;;;5054581;28;36191;-60
2022/08/08 04:41:09;;;;;;;7.70;4.38;;;15.30;99.90;;;;;;5054001;28;37796;-60
2022/08/08 04:43:36;;;;;;;8.98;4.13;;;15.30;99.90;;;;;;5054136;28;36311;-60
2022/08/08 04:46:04;;;;;;;10.05;4.45;;;15.30;99.90;;;;;;5054028;28;37449;-60
2022/08/08 04:48:33;;;;;;;7.35;4.00;;;15.40;99.90;;;;;;5054197;28;36474;-60
2022/08/08 04:51:00;;;;;;;8.82;3.92;;;15.40;99.90;;;;;;5053876;28;38514;-60
2022/08/08 04:53:27;;;;;;;9.10;4.22;;;15.50;99.90;;;;;;5053701;28;38880;-60
2022/08/08 04:55:55;;;;;;;8.32;4.65;;;15.50;99.90;;;;;;5053790;28;37132;-60
2022/08/08 04:58:22;;;;;;;10.43;4.28;;;15.60;99.90;;;;;;5049561;28;36542;-60
2022/08/08 05:00:50;;;;;;;8.18;4.55;;;15.60;99.90;;;;;;5045711;28;38320;-60
2022/08/08 05:03:17;;;;;;;7.72;3.55;;;15.70;99.90;;;;;;5052129;28;37854;-60
2022/08/08 05:05:46;;;;;;;7.68;4.15;;;15.80;99.90;;;;;;5052561;28;37476;-60
2022/08/08 05:08:13;;;;;;;10.15;4.43;;;15.90;99.90;;;;;;5045733;28;37250;-60
2022/08/08 05:10:40;;;;;;;8.18;4.28;;;15.90;99.90;;;;;;5038651;28;37572;-61
2022/08/08 05:13:08;;;;;;;9.10;4.47;;;15.90;99.90;;;;;;5047222;28;38622;-60
2022/08/08 05:15:35;;;;;;;9.98;4.47;;;15.90;99.90;;;;;;5050653;28;37244;-60
2022/08/08 05:18:02;;;;;;;7.63;3.78;;;16.00;99.90;;;;;;5051017;28;35262;-60
2022/08/08 05:20:30;;;;;;;7.97;4.10;;;16.00;99.90;;;;;;5049398;28;38514;-60
2022/08/08 05:23:00;;;;;;;10.35;4.10;;;16.00;99.90;;;;;;5045072;28;20143;-60
2022/08/08 05:25:27;;;;;;;7.75;4.28;;;16.00;99.90;;;;;;5048524;28;37922;-60
2022/08/08 05:27:54;;;;;;;10.07;4.72;;;16.00;99.90;;;;;;5048557;28;36627;-60
2022/08/08 05:30:22;;;;;;;10.38;4.82;;;16.10;99.90;;;;;;5045951;28;36180;-60
2022/08/08 05:32:49;;;;;;;9.23;4.07;;;16.10;99.90;;;;;;5046386;28;38510;-60
2022/08/08 05:35:21;;;;;;;6.93;3.63;;;16.10;99.90;;;;;;5048391;28;37523;-60
2022/08/08 05:37:54;;;;;;;8.82;4.25;;;16.10;99.90;;;;;;5046466;28;37910;-60
2022/08/08 05:40:22;;;;;;;10.98;4.80;;;16.10;99.90;;;;;;5050374;28;37938;-60
2022/08/08 05:42:51;;;;;;;8.85;4.07;;;16.20;99.90;;;;;;5053881;28;37656;-60
2022/08/08 05:45:18;;;;;;;8.00;4.05;;;16.20;99.90;;;;;;5045217;28;36995;-60
2022/08/08 05:47:46;;;;;;;8.60;4.53;;;16.20;99.90;;;;;;5047948;28;37564;-60
2022/08/08 05:50:13;;;;;;;16.63;5.03;;;16.30;99.90;;;;;;5048400;28;36399;-60
2022/08/08 05:52:41;;;;;;;9.57;4.20;;;16.30;99.90;;;;;;5048543;28;38046;-60
2022/08/08 05:55:10;;;;;;;9.90;4.05;;;16.40;99.90;;;;;;5049772;28;38880;-61
2022/08/08 05:57:41;;;;;;;8.27;3.72;;;16.40;99.90;;;;;;5050207;28;36613;-61
2022/08/08 06:00:11;;;;;;;8.93;3.72;;;16.50;99.90;;;;;;5050366;28;37386;-60
2022/08/08 06:05:30;;;;;;;8.90;4.05;;;16.50;99.90;;;;;;5047745;28;38127;-60
2022/08/08 06:07:58;;;;;;;8.27;3.60;;;16.50;99.90;;;;;;5048409;28;36489;-60
2022/08/08 06:10:31;;;;;;;9.93;3.58;;;16.50;99.90;;;;;;5047018;28;36442;-60
2022/08/08 06:13:00;;;;;;;7.45;3.65;;;16.50;99.90;;;;;;5048797;28;37493;-60
2022/08/08 06:15:29;;;;;;;11.25;4.55;;;16.50;99.90;;;;;;5048249;28;39093;-60
2022/08/08 06:17:58;;;;;;;8.75;3.58;;;16.50;99.90;;;;;;5048170;28;35330;-60
2022/08/08 06:20:26;;;;;;;8.60;4.10;;;16.50;99.90;;;;;;5049056;28;37387;-60
2022/08/08 06:22:53;;;;;;;8.13;3.80;;;16.60;99.90;;;;;;5048840;28;38693;-61
2022/08/08 06:25:21;;;;;;;11.25;4.32;;;16.70;99.90;;;;;;5047534;28;37671;-61
2022/08/08 06:27:54;;;;;;;9.52;4.25;;;16.90;99.90;;;;;;5048481;28;37127;-60
2022/08/08 06:30:23;;;;;;;9.70;4.17;;;17.10;99.90;;;;;;5048975;28;38462;-60
2022/08/08 06:32:52;;;;;;;8.20;3.90;;;17.20;99.90;;;;;;5049112;28;37065;-60
2022/08/08 06:35:20;;;;;;;8.98;3.75;;;17.20;99.90;;;;;;5053153;28;37691;-60
2022/08/08 06:37:52;;;;;;;9.40;3.95;;;17.20;99.90;;;;;;5052921;28;35945;-61
2022/08/08 06:40:20;;;;;;;12.32;4.03;;;17.20;99.90;;;;;;5053835;28;36322;-60
2022/08/08 06:42:53;;;;;;;9.90;3.53;;;17.30;99.90;;;;;;5052202;28;39176;-60
2022/08/08 06:45:22;;;;;;;9.02;4.20;;;17.50;99.90;;;;;;5054992;28;37501;-60
2022/08/08 06:47:50;;;;;;;13.32;4.68;;;17.60;99.90;;;;;;5054440;28;36657;-60
2022/08/08 06:50:18;;;;;;;13.90;4.45;;;17.70;99.90;;;;;;5050924;28;37483;-60
2022/08/08 06:52:45;;;;;;;13.52;4.65;;;17.80;99.90;;;;;;5051157;28;37664;-60
2022/08/08 06:55:13;;;;;;;9.05;3.60;;;18.00;99.90;;;;;;5053707;28;36207;-60
2022/08/08 06:57:40;;;;;;;7.75;3.45;;;18.20;99.90;;;;;;5053546;28;37616;-61
2022/08/08 07:00:08;;;;;;;6.20;3.38;;;18.30;99.90;;;;;;5053621;28;36284;-60
2022/08/08 07:02:42;;;;;;;6.03;3.42;;;18.40;99.90;;;;;;5054005;28;36464;-61
2022/08/08 07:05:14;;;;;;;8.05;2.92;;;18.40;99.90;;;;;;5053811;28;38375;-62
2022/08/08 07:07:56;;;;;;;7.90;3.08;;;18.50;99.90;;;;;;5053858;28;35930;-61
2022/08/08 07:10:25;;;;;;;8.13;3.53;;;18.60;99.90;;;;;;5052950;28;37309;-61
2022/08/08 07:12:54;;;;;;;7.22;2.47;;;18.60;99.90;;;;;;5053290;28;38345;-60
2022/08/08 07:15:31;;;;;;;9.10;2.92;;;18.70;99.90;;;;;;5052507;28;37356;-61
2022/08/08 07:18:04;;;;;;;5.07;2.08;;;18.80;99.90;;;;;;5054259;28;36438;-61
2022/08/08 07:20:36;;;;;;;7.53;2.58;;;18.90;99.90;;;;;;5052719;28;39367;-61
2022/08/08 07:23:08;;;;;;;7.82;2.70;;;19.00;99.90;;;;;;5052866;28;39470;-61
2022/08/08 07:25:39;;;;;;;13.48;2.53;;;19.10;99.90;;;;;;5055086;28;38224;-62
2022/08/08 07:28:09;;;;;;;7.20;2.22;;;19.10;99.90;;;;;;5056551;28;36819;-61
2022/08/08 07:30:37;;;;;;;7.90;2.03;;;19.20;99.90;;;;;;5058162;28;37860;-61
2022/08/08 07:33:07;;;;;;;6.25;1.90;;;19.30;99.90;;;;;;5056909;28;37825;-61
2022/08/08 07:35:37;;;;;;;4.18;1.50;;;19.30;99.90;;;;;;5056110;28;36602;-61
2022/08/08 07:38:05;;;;;;;4.20;1.42;;;19.40;99.90;;;;;;5057576;28;38221;-61
2022/08/08 07:40:33;;;;;;;8.27;1.95;;;19.50;99.90;;;;;;5057879;28;38286;-61
2022/08/08 07:43:02;;;;;;;6.05;1.70;;;19.50;99.90;;;;;;5057884;28;36533;-61
2022/08/08 07:45:30;;;;;;;4.32;1.55;;;19.50;99.90;;;;;;5057387;28;39441;-61
2022/08/08 07:47:57;;;;;;;9.45;1.40;;;19.60;99.90;;;;;;5056889;28;34920;-61
2022/08/08 07:50:26;;;;;;;6.03;2.08;;;19.60;99.90;;;;;;5056181;28;37615;-61
2022/08/08 07:52:59;;;;;;;4.82;1.50;;;19.70;99.90;;;;;;5057299;28;37951;-61
2022/08/08 07:55:29;;;;;;;6.05;1.58;;;19.70;99.90;;;;;;5057051;28;37318;-61
2022/08/08 07:58:19;;;;;;;6.10;1.30;;;19.80;99.90;;;;;;5057578;28;36709;-61
2022/08/08 08:00:50;;;;;;;4.70;1.50;;;19.80;99.90;;;;;;5057662;28;36275;-61
2022/08/08 08:03:22;;;;;;;4.47;1.40;;;19.90;99.90;;;;;;5056294;28;37818;-61
2022/08/08 08:05:51;;;;;;;5.15;1.38;;;20.00;99.90;;;;;;5057116;28;38537;-61
2022/08/08 08:08:22;;;;;;;6.50;1.80;;;20.10;99.90;;;;;;5057630;28;35293;-61
2022/08/08 08:10:52;;;;;;;10.90;1.90;;;20.10;99.90;;;;;;5058039;28;36227;-61
2022/08/08 08:13:26;;;;;;;2.20;1.10;;;20.10;99.90;;;;;;5058038;28;37518;-61
2022/08/08 08:16:01;;;;;;;2.15;0.93;;;20.20;99.90;;;;;;5056825;28;36093;-61
2022/08/08 08:18:34;;;;;;;4.95;1.02;;;20.20;99.90;;;;;;5056379;28;36319;-61
2022/08/08 08:21:03;;;;;;;;;;;20.30;99.90;;;;;;5057415;28;37434;-61
2022/08/08 08:23:31;;;;;;;5.05;0.82;;;20.20;98.50;;;;;;5057226;28;36764;-61
2022/08/08 08:25:58;;;;;;;4.47;1.02;;;20.20;99.70;;;;;;5055293;28;37871;-62
2022/08/08 08:28:25;;;;;;;4.90;1.55;;;20.00;99.40;;;;;;5056513;28;36662;-62
2022/08/08 08:30:53;;;;;;;3.65;1.17;;;20.10;99.40;;;;;;5057266;28;37388;-61
2022/08/08 08:33:21;;;;;;;4.72;1.30;;;20.20;99.60;;;;;;5056513;28;37928;-62
2022/08/08 08:35:49;;;;;;;2.10;0.85;;;20.20;99.50;;;;;;5054642;28;38586;-62
2022/08/08 08:38:17;;;;;;;7.30;1.45;;;20.20;99.10;;;;;;5054581;28;36367;-62
2022/08/08 08:40:45;;;;;;;3.95;1.17;;;20.20;99.40;;;;;;5055303;28;38929;-62
2022/08/08 08:43:14;;;;;;;4.15;0.88;;;20.20;99.20;;;;;;5052474;28;36511;-62
2022/08/08 08:45:42;;;;;;;2.78;1.00;;;20.20;99.00;;;;;;5055665;28;37104;-61
2022/08/08 08:48:10;;;;;;;4.00;1.05;;;20.20;99.20;;;;;;5055393;28;36316;-62
2022/08/08 08:50:39;;;;;;;4.05;1.20;;;20.20;99.00;;;;;;5052922;28;39421;-62
2022/08/08 08:53:08;;;;;;;2.95;1.00;;;20.20;98.50;;;;;;5054064;28;39271;-62
2022/08/08 08:55:38;;;;;;;5.10;0.90;;;20.20;98.40;;;;;;5054816;28;35962;-62
2022/08/08 08:58:07;;;;;;;4.53;1.10;;;20.20;98.10;;;;;;5051869;28;36668;-62
2022/08/08 09:00:37;;;;;;;7.25;1.45;;;20.10;98.40;;;;;;5052272;28;37625;-61
2022/08/08 09:03:08;;;;;;;2.70;1.10;;;20.10;98.90;;;;;;5055765;28;37607;-61
2022/08/08 09:05:40;;;;;;;4.07;0.95;;;20.10;98.90;;;;;;5052827;28;37953;-62
2022/08/08 09:08:09;;;;;;;3.80;0.90;;;20.10;98.60;;;;;;5054845;28;37865;-62
2022/08/08 09:10:39;;;;;;;7.13;1.35;;;20.10;98.70;;;;;;5054099;28;37556;-62
2022/08/08 09:13:08;;;;;;;5.28;1.40;;;20.20;98.90;;;;;;5055462;28;37924;-62
2022/08/08 09:15:35;;;;;;;4.63;1.20;;;20.20;98.90;;;;;;5055512;28;37600;-61
2022/08/08 09:18:04;;;;;;;4.07;1.10;;;20.20;98.90;;;;;;5054183;28;36296;-60
2022/08/08 09:20:33;;;;;;;3.17;1.00;;;20.30;99.10;;;;;;5053278;28;36865;-61
2022/08/08 09:23:01;;;;;;;2.72;0.93;;;20.30;99.30;;;;;;5054293;28;36305;-60
2022/08/08 09:25:29;;;;;;;5.22;1.20;;;20.30;99.20;;;;;;5056086;28;36057;-61
2022/08/08 09:27:58;;;;;;;5.03;1.00;;;20.40;99.20;;;;;;5054465;28;36363;-61
2022/08/08 09:30:26;;;;;;;8.15;1.15;;;20.50;98.90;;;;;;5055161;28;37130;-61
2022/08/08 09:32:55;;;;;;;3.55;1.00;;;20.50;98.60;;;;;;5055000;28;40234;-61
2022/08/08 09:35:27;;;;;;;2.40;0.90;;;20.50;97.90;;;;;;5055917;28;39966;-61
2022/08/08 09:37:56;;;;;;;3.10;0.90;;;20.50;98.10;;;;;;5049558;28;36761;-61
2022/08/08 09:40:25;;;;;;;4.50;1.08;;;20.50;98.20;;;;;;5051189;28;37653;-61
2022/08/08 09:43:07;;;;;;;4.15;0.90;;;20.50;98.00;;;;;;5049144;28;38535;-61
2022/08/08 09:45:41;;;;;;;2.55;1.00;;;20.50;98.00;;;;;;5052184;28;37800;-61
2022/08/08 09:48:10;;;;;;;3.03;0.93;;;20.50;97.80;;;;;;5051624;28;36867;-61
2022/08/08 09:50:37;;;;;;;4.18;1.10;;;20.40;97.90;;;;;;5049966;28;37182;-61
2022/08/08 09:53:05;;;;;;;2.55;0.70;;;20.40;98.00;;;;;;5051632;28;37846;-61
2022/08/08 09:55:32;;;;;;;3.90;1.17;;;20.30;98.10;;;;;;5051179;28;37214;-61
2022/08/08 09:58:08;;;;;;;4.38;0.93;;;20.30;98.20;;;;;;5050756;28;35070;-61
2022/08/08 10:00:39;;;;;;;3.25;1.10;;;20.30;97.90;;;;;;5054035;28;36337;-61
2022/08/08 10:03:07;;;;;;;3.60;1.00;;;20.30;97.90;;;;;;5052125;28;38050;-61
2022/08/08 10:05:36;;;;;;;6.72;1.30;;;20.20;98.00;;;;;;5052863;28;37537;-61
2022/08/08 10:08:05;;;;;;;3.17;0.82;;;20.30;98.00;;;;;;5053237;28;38040;-61
2022/08/08 10:10:34;;;;;;;3.90;1.38;;;20.30;98.10;;;;;;5052205;28;36198;-62
2022/08/08 10:13:02;;;;;;;4.90;1.10;;;20.30;98.30;;;;;;5053492;28;39045;-61
2022/08/08 10:15:38;;;;;;;3.85;0.95;;;20.30;98.10;;;;;;5053303;28;37337;-61
2022/08/08 10:18:05;;;;;;;2.67;0.80;;;20.40;98.20;;;;;;5053225;28;36441;-61
2022/08/08 10:20:40;;;;;;;2.30;0.90;;;20.40;98.30;;;;;;5052096;28;37702;-61
2022/08/08 10:23:08;;;;;;;2.33;0.90;;;20.50;98.30;;;;;;5052489;28;36594;-61
2022/08/08 10:25:39;;;;;;;3.22;0.90;;;20.50;97.80;;;;;;5052670;28;37896;-61
2022/08/08 10:28:15;;;;;;;3.72;0.80;;;20.50;97.50;;;;;;5053530;28;38958;-61
2022/08/08 10:30:55;;;;;;;3.58;1.05;;;20.40;97.20;;;;;;5052091;28;37844;-61
2022/08/08 10:33:30;;;;;;;4.55;0.85;;;20.50;97.50;;;;;;5052397;28;36643;-61
2022/08/08 10:36:00;;;;;;;3.83;1.23;;;20.40;97.40;;;;;;5049475;28;38609;-61
2022/08/08 10:38:30;;;;;;;2.13;0.75;;;20.40;97.40;;;;;;5050964;28;35109;-61
2022/08/08 10:41:04;;;;;;;5.70;1.45;;;20.40;97.40;;;;;;5052168;28;38384;-61
2022/08/08 10:43:38;;;;;;;3.92;0.90;;;20.40;97.80;;;;;;5052859;28;38357;-61
2022/08/08 10:46:24;;;;;;;3.80;0.90;;;20.50;97.90;;;;;;5052645;28;36013;-61
2022/08/08 10:48:52;;;;;;;5.15;1.30;;;20.50;98.00;;;;;;5053171;28;35387;-61
2022/08/08 10:51:20;;;;;;;4.13;1.20;;;20.50;98.40;;;;;;5052263;28;38120;-61
2022/08/08 10:53:49;;;;;;;5.47;1.00;;;20.50;98.20;;;;;;5053229;28;37650;-61
2022/08/08 10:56:17;;;;;;;2.83;1.08;;;20.50;98.10;;;;;;5050852;28;36682;-61
2022/08/08 10:58:45;;;;;;;2.58;1.00;;;20.50;98.10;;;;;;5051868;28;36624;-61
2022/08/08 11:01:14;;;;;;;4.95;1.20;;;20.50;98.30;;;;;;5055159;28;37670;-61
2022/08/08 11:03:43;;;;;;;2.75;0.75;;;20.50;98.10;;;;;;5056944;28;37583;-61
2022/08/08 11:06:11;;;;;;;2.92;0.80;;;20.60;98.00;;;;;;5057613;28;39913;-61
2022/08/08 11:08:40;;;;;;;3.03;1.55;;;20.60;98.00;;;;;;5058837;28;39249;-61
2022/08/08 11:11:10;;;;;;;2.65;0.90;;;20.60;98.00;;;;;;5058140;28;36946;-61
2022/08/08 11:13:40;;;;;;;3.13;0.98;;;20.60;98.00;;;;;;5057751;28;38177;-62
2022/08/08 11:16:11;;;;;;;4.45;1.00;;;20.70;97.80;;;;;;5058556;28;37409;-61
2022/08/08 11:18:43;;;;;;;4.30;1.00;;;20.80;97.80;;;;;;5059324;28;37627;-61
2022/08/08 11:21:11;;;;;;;6.05;1.10;;;20.80;97.50;;;;;;5057797;28;40340;-61
2022/08/08 11:23:42;;;;;;;3.67;1.02;;;20.80;97.50;;;;;;5059399;28;37385;-61
2022/08/08 11:26:13;;;;;;;5.55;1.10;;;20.90;97.50;;;;;;5059860;28;37428;-61
2022/08/08 11:28:41;;;;;;;2.45;0.93;;;20.90;96.90;;;;;;5059262;28;37236;-61
2022/08/08 11:31:11;;;;;;;1.80;0.77;;;21.00;96.30;;;;;;5057189;28;38832;-61
2022/08/08 11:33:42;;;;;;;3.20;0.82;;;21.00;95.80;;;;;;5058209;28;37836;-61
2022/08/08 11:36:09;;;;;;;3.03;1.00;;;21.00;95.90;;;;;;5057561;28;37567;-61
2022/08/08 11:38:37;;;;;;;2.97;0.80;;;21.10;96.30;;;;;;5059436;28;37579;-61
2022/08/08 11:41:04;;;;;;;3.30;0.70;;;21.10;96.20;;;;;;5059055;28;38038;-61
2022/08/08 11:43:32;;;;;;;2.42;0.82;;;21.20;96.30;;;;;;5057143;28;38371;-61
2022/08/08 11:45:59;;;;;;;3.08;1.13;;;21.30;96.60;;;;;;5056505;28;36191;-61
2022/08/08 11:48:27;;;;;;;2.28;0.90;;;21.30;96.40;;;;;;5058191;28;37016;-61
2022/08/08 11:50:56;;;;;;;4.20;1.08;;;21.40;96.00;;;;;;5057947;28;39586;-61
2022/08/08 11:53:23;;;;;;;3.83;0.90;;;21.50;95.90;;;;;;5058639;28;37856;-61
2022/08/08 11:55:51;;;;;;;5.80;1.35;;;21.50;96.00;;;;;;5058069;28;38457;-61
2022/08/08 11:58:19;;;;;;;3.65;0.88;;;21.60;96.50;;;;;;5058710;28;35373;-61
2022/08/08 12:00:47;;;;;;;5.88;1.42;;;21.60;96.40;;;;;;5058586;28;37773;-61
2022/08/08 12:03:23;;;;;;;3.20;0.93;;;21.60;95.90;;;;;;5058761;28;39827;-61
2022/08/08 12:05:52;;;;;;;2.92;1.02;;;21.60;95.40;;;;;;5058362;28;38512;-61
2022/08/08 12:08:32;;;;;;;2.13;0.75;;;21.50;95.40;;;;;;5056160;28;37788;-61
2022/08/08 12:11:01;;;;;;;3.80;1.48;;;21.40;95.40;;;;;;5056156;28;37555;-61
2022/08/08 12:13:29;;;;;;;2.90;1.00;;;21.30;95.70;;;;;;5052715;28;37567;-61
2022/08/08 12:16:07;;;;;;;3.88;1.02;;;21.20;95.80;;;;;;5052469;28;38161;-62
2022/08/08 12:18:45;;;;;;;2.70;0.88;;;21.20;95.90;;;;;;5051967;28;36812;-62
2022/08/08 12:21:23;;;;;;;2.88;0.70;;;21.10;95.90;;;;;;5053872;28;37302;-60
2022/08/08 12:24:03;;;;;;;3.25;0.90;;;21.10;96.00;;;;;;5055056;28;37813;-59
2022/08/08 12:26:37;;;;;;;2.15;0.80;;;21.00;95.80;;;;;;5053916;28;36119;-59
2022/08/08 12:29:23;;;;;;;3.20;0.80;;;21.00;95.70;;;;;;5052537;28;36374;-59
2022/08/08 12:32:05;;;;;;;4.18;1.05;;;21.00;95.30;;;;;;5055135;28;37717;-61
2022/08/08 12:34:37;;;;;;;3.40;0.80;;;21.00;95.00;;;;;;5052119;28;38358;-61
2022/08/08 12:37:06;;;;;;;3.20;0.95;;;21.00;95.20;;;;;;5052310;28;39540;-61
2022/08/08 12:39:35;;;;;;;3.78;0.77;;;21.00;95.10;;;;;;5053039;28;36031;-61
2022/08/08 12:42:02;;;;;;;3.85;0.90;;;21.00;94.90;;;;;;5053135;28;38744;-61
2022/08/08 12:44:31;;;;;;;3.60;1.20;;;21.10;95.00;;;;;;5050281;28;37990;-61
2022/08/08 12:46:59;;;;;;;3.33;0.80;;;21.00;95.60;;;;;;5050666;28;38032;-61
2022/08/08 12:49:28;;;;;;;4.78;1.25;;;21.10;95.80;;;;;;5053626;28;36898;-61
2022/08/08 12:51:56;;;;;;;4.72;1.10;;;21.00;96.10;;;;;;5052786;28;37653;-61
2022/08/08 12:54:25;;;;;;;2.67;0.93;;;21.10;96.20;;;;;;5052512;28;37669;-61
2022/08/08 12:56:54;;;;;;;7.30;1.60;;;21.00;96.30;;;;;;5054127;28;38045;-61
2022/08/08 12:59:23;;;;;;;3.22;1.17;;;21.00;96.60;;;;;;5053655;28;36939;-61
2022/08/08 13:01:52;;;;;;;3.08;0.93;;;21.00;96.60;;;;;;5053423;28;37699;-61
2022/08/08 13:04:22;;;;;;;3.38;1.40;;;21.00;96.20;;;;;;5053363;28;37789;-61
2022/08/08 13:06:54;;;;;;;3.10;1.00;;;21.00;96.10;;;;;;5052864;28;37530;-62
2022/08/08 13:09:32;;;;;;;3.80;1.17;;;21.00;95.80;;;;;;5051802;28;35843;-61
2022/08/08 13:12:01;;;;;;;4.72;1.08;;;21.00;95.40;;;;;;5052090;28;37816;-61
2022/08/08 13:14:38;;;;;;;5.20;1.50;;;20.90;95.40;;;;;;5053728;28;37395;-61
2022/08/08 13:17:06;;;;;;;3.67;1.05;;;20.90;95.40;;;;;;5053034;28;37122;-61
2022/08/08 13:19:35;;;;;;;3.47;1.00;;;20.90;95.60;;;;;;5054302;28;37292;-61
2022/08/08 13:22:02;;;;;;;4.13;1.27;;;21.00;95.60;;;;;;5052593;28;40881;-61
2022/08/08 13:24:30;;;;;;;3.55;1.10;;;20.90;95.30;;;;;;5049103;28;38086;-61
2022/08/08 13:27:03;;;;;;;4.60;1.00;;;21.00;95.30;;;;;;5051879;28;37296;-61
2022/08/08 13:29:30;;;;;;;3.03;0.82;;;21.00;94.90;;;;;;5054520;28;36379;-61